Sunrise Beach, MO

10:37 PM CST on November 25, 2014 (GMT -0600)
Elsie and Einstein's Nest | Change Station
CLOSE
Current Station
Personal Weather Station
Location: Sunrise Beach, MO
Elevation: 820 ft
Nearby Weather Stations

Elev 820 ft 38.20 °N, 92.78 °W | Updated 2 seconds ago

Clear
Clear
32.8 °F
Feels Like 33 °F
N
0.0
Wind Variable Wind from ENE
Gusts 4.0 mph

Today
High -- | Low -- °F
--% Chance of Precip.
Yesterday
High -- | Low -- °F
Precip. -- in
7:02 AM 4:53 PM
Waxing Crescent, 16% visible
Pressure 30.13 in
Visibility 10.0 miles
Clouds Clear
Windchill 33 °F
Dew Point 22 °F
Humidity 64%
Rainfall 0.00 in
Snow Depth Not available.
UV 0 out of 12
Pollen .30 out of 12
Air Quality Not available.
Flu Activity Not available.
METAR KAIZ 260415Z AUTO 15005KT 10SM CLR M03/M08 A3013 RMK AO1

More Conditions Fewer Conditions

Pressure 30.13 in
Visibility 10.0 miles
Clouds Clear
Windchill 33 °F
Dew Point 22 °F
Humidity 64%
Rainfall 0.00 in
Snow Depth Not available.
UV 0 out of 12
Pollen .30 out of 12
Air Quality Not available.
Flu Activity Not available.
METAR KAIZ 260415Z AUTO 15005KT 10SM CLR M03/M08 A3013 RMK AO1

More Conditions Fewer Conditions

10-Day Weather Forecast

Almanac

Astronomy

Nov. 25, 2014 Rise Set
Actual Time
Civil Twilight
Nautical Twilight
Astronomical Twilight
Moon
Length of Visible Light
Length of Day
Tomorrow will be .
, % of the Moon is Illuminated

Today's Extremes

State Highs State Lows

Community

WunderPhotos

Upload Photos

1,773,684 photos uploaded!

WunderBlogs® & News

Nearby

Air Quality

  Air Quality AQ Index Pollutant
Not available.

Snow Depth

Station Depth Elevation

Earthquake Activity

City Distance Mag. Time & Date
Minimum magnitude displayed is 2.5.

Coastal Water Temperatures

Place Temperature

Nearby Weather Stations